createdAt,value
2023-02-19T00:01:17.694Z,5.59
2023-02-19T00:03:49.471Z,5.59
2023-02-19T00:06:17.318Z,5.60
2023-02-19T00:08:48.160Z,5.58
2023-02-19T00:11:17.628Z,5.58
2023-02-19T00:13:46.620Z,5.56
2023-02-19T00:16:15.985Z,5.55
2023-02-19T00:18:44.773Z,5.54
2023-02-19T00:21:13.269Z,5.53
2023-02-19T00:23:41.075Z,5.53
2023-02-19T00:26:18.268Z,5.53
2023-02-19T00:28:47.704Z,5.52
2023-02-19T00:31:20.223Z,5.52
2023-02-19T00:33:48.497Z,5.52
2023-02-19T00:36:16.688Z,5.51
2023-02-19T00:38:45.232Z,5.51
2023-02-19T00:41:13.721Z,5.51
2023-02-19T00:43:41.623Z,5.50
2023-02-19T00:46:09.449Z,5.50
2023-02-19T00:48:37.295Z,5.49
2023-02-19T00:51:05.409Z,5.49
2023-02-19T00:53:33.230Z,5.48
2023-02-19T00:56:00.918Z,5.47
2023-02-19T00:58:28.724Z,5.47
2023-02-19T01:00:56.746Z,5.47
2023-02-19T01:03:24.946Z,5.46
2023-02-19T01:05:53.174Z,5.47
2023-02-19T01:08:20.975Z,5.48
2023-02-19T01:10:48.754Z,5.49
2023-02-19T01:13:16.965Z,5.49
2023-02-19T01:15:44.851Z,5.48
2023-02-19T01:18:12.757Z,5.47
2023-02-19T01:20:41.395Z,5.47
2023-02-19T01:23:11.158Z,5.44
2023-02-19T01:25:39.754Z,5.41
2023-02-19T01:28:07.963Z,5.41
2023-02-19T01:30:36.493Z,5.39
2023-02-19T01:33:04.939Z,5.38
2023-02-19T01:35:33.058Z,5.36
2023-02-19T01:38:00.770Z,5.36
2023-02-19T01:40:28.625Z,5.36
2023-02-19T01:42:56.418Z,5.36
2023-02-19T01:45:31.511Z,5.37
2023-02-19T01:48:03.203Z,5.37
2023-02-19T01:50:34.688Z,5.37
2023-02-19T01:53:03.543Z,5.36
2023-02-19T01:55:31.803Z,5.36
2023-02-19T01:58:01.572Z,5.36
2023-02-19T02:00:29.499Z,5.36
2023-02-19T02:02:58.095Z,5.35
2023-02-19T02:05:47.684Z,5.34
2023-02-19T02:08:16.668Z,5.34
2023-02-19T02:10:44.871Z,5.34
2023-02-19T02:13:12.914Z,5.35
2023-02-19T02:15:50.102Z,5.34
2023-02-19T02:18:17.978Z,5.34
2023-02-19T02:20:58.558Z,5.35
2023-02-19T02:23:35.220Z,5.35
2023-02-19T02:26:06.239Z,5.35
2023-02-19T02:28:37.304Z,5.37
2023-02-19T02:31:19.987Z,5.38
2023-02-19T02:33:53.693Z,5.39
2023-02-19T02:36:31.256Z,5.40
2023-02-19T02:39:00.161Z,5.41
2023-02-19T02:41:27.923Z,5.41
2023-02-19T02:43:55.680Z,5.41
2023-02-19T02:46:28.070Z,5.42
2023-02-19T02:49:03.466Z,5.42
2023-02-19T02:51:33.545Z,5.43
2023-02-19T02:54:09.709Z,5.43
2023-02-19T02:56:38.078Z,5.44
2023-02-19T02:59:08.741Z,5.44
2023-02-19T03:01:42.980Z,5.44
2023-02-19T03:04:14.365Z,5.45
2023-02-19T03:06:43.605Z,5.46
2023-02-19T03:09:15.172Z,5.47
2023-02-19T03:11:45.382Z,5.48
2023-02-19T03:14:16.405Z,5.50
2023-02-19T03:16:46.539Z,5.51
2023-02-19T03:19:15.936Z,5.53
2023-02-19T03:21:45.857Z,5.54
2023-02-19T03:24:15.066Z,5.55
2023-02-19T03:26:43.958Z,5.56
2023-02-19T03:29:12.025Z,5.56
2023-02-19T03:31:43.540Z,5.56
2023-02-19T03:34:16.069Z,5.57
2023-02-19T03:36:51.380Z,5.55
2023-02-19T03:39:22.185Z,5.56
2023-02-19T03:41:56.365Z,5.57
2023-02-19T03:44:44.951Z,5.57
2023-02-19T03:47:17.341Z,5.57
2023-02-19T03:50:11.146Z,5.59
2023-02-19T03:52:51.051Z,5.59
2023-02-19T03:55:32.205Z,5.61
2023-02-19T03:58:19.293Z,5.61
2023-02-19T04:00:55.272Z,5.63
2023-02-19T04:03:33.316Z,5.64
2023-02-19T04:06:03.097Z,5.64
2023-02-19T04:08:33.776Z,5.65
2023-02-19T04:11:04.583Z,5.64
2023-02-19T04:13:43.704Z,5.64
2023-02-19T04:16:15.570Z,5.64
2023-02-19T04:18:44.247Z,5.63
2023-02-19T04:21:12.812Z,5.62
2023-02-19T04:23:43.102Z,5.63
2023-02-19T04:26:11.645Z,5.60
2023-02-19T04:28:39.588Z,5.59
2023-02-19T04:31:07.419Z,5.58
2023-02-19T04:33:35.253Z,5.58
2023-02-19T04:36:03.100Z,5.59
2023-02-19T04:38:30.844Z,5.57
2023-02-19T04:40:58.593Z,5.55
2023-02-19T04:43:26.290Z,5.54
2023-02-19T04:45:54.121Z,5.53
2023-02-19T04:48:21.916Z,5.53
2023-02-19T04:50:49.728Z,5.51
2023-02-19T04:53:17.556Z,5.51
2023-02-19T04:55:45.271Z,5.50
2023-02-19T04:58:12.985Z,5.49
2023-02-19T05:00:40.749Z,5.48
2023-02-19T05:03:08.454Z,5.47
2023-02-19T05:05:36.244Z,5.46
2023-02-19T05:08:04.103Z,5.45
2023-02-19T05:10:31.770Z,5.44
2023-02-19T05:12:59.502Z,5.45
2023-02-19T05:15:27.345Z,5.44
2023-02-19T05:17:55.290Z,5.45
2023-02-19T05:20:23.094Z,5.45
2023-02-19T05:22:51.012Z,5.45
2023-02-19T05:25:18.795Z,5.47
2023-02-19T05:27:46.471Z,5.48
2023-02-19T05:30:14.176Z,5.47
2023-02-19T05:32:42.307Z,5.47
2023-02-19T05:35:10.017Z,5.49
2023-02-19T05:37:37.731Z,5.49
2023-02-19T05:40:05.697Z,5.51
2023-02-19T05:42:33.447Z,5.51
2023-02-19T05:45:01.259Z,5.52
2023-02-19T05:47:29.764Z,5.52
2023-02-19T05:49:57.455Z,5.52
2023-02-19T05:52:25.346Z,5.53
2023-02-19T05:54:53.093Z,5.55
2023-02-19T05:57:20.742Z,5.55
2023-02-19T05:59:48.427Z,5.55
2023-02-19T06:02:16.162Z,5.56
2023-02-19T06:04:43.948Z,5.58
2023-02-19T06:07:11.693Z,5.60
2023-02-19T06:09:39.531Z,5.61
2023-02-19T06:12:07.269Z,5.63
2023-02-19T06:14:35.016Z,5.65
2023-02-19T06:17:02.779Z,5.66
2023-02-19T06:19:30.550Z,5.66
2023-02-19T06:21:58.629Z,5.68
2023-02-19T06:24:26.475Z,5.68
2023-02-19T06:26:54.190Z,5.69
2023-02-19T06:29:21.907Z,5.70
2023-02-19T06:31:49.658Z,5.71
2023-02-19T06:34:17.582Z,5.71
2023-02-19T06:36:45.471Z,5.72
2023-02-19T06:39:13.227Z,5.71
2023-02-19T06:41:41.042Z,5.73
2023-02-19T06:44:09.069Z,5.75
2023-02-19T06:46:36.930Z,5.76
2023-02-19T06:49:05.181Z,5.79
2023-02-19T06:51:33.101Z,5.82
2023-02-19T06:54:00.820Z,5.85
2023-02-19T06:56:33.077Z,5.89
2023-02-19T06:59:02.085Z,5.94
2023-02-19T07:01:30.567Z,5.99
2023-02-19T07:03:58.639Z,6.02
2023-02-19T07:06:26.849Z,6.06
2023-02-19T07:08:55.283Z,6.10
2023-02-19T07:11:23.343Z,6.13
2023-02-19T07:13:54.856Z,6.16
2023-02-19T07:16:23.298Z,6.22
2023-02-19T07:18:51.019Z,6.27
2023-02-19T07:21:19.042Z,6.31
2023-02-19T07:23:46.888Z,6.34
2023-02-19T07:26:16.195Z,6.39
2023-02-19T07:28:44.769Z,6.45
2023-02-19T07:31:13.104Z,6.51
2023-02-19T07:33:43.219Z,6.56
2023-02-19T07:36:11.504Z,6.60
2023-02-19T07:38:39.356Z,6.62
2023-02-19T07:41:07.238Z,6.64
2023-02-19T07:43:36.004Z,6.60
2023-02-19T07:46:11.858Z,6.58
2023-02-19T07:48:40.630Z,6.55
2023-02-19T07:51:11.640Z,6.53
2023-02-19T07:53:39.497Z,6.53
2023-02-19T07:56:08.351Z,6.52
2023-02-19T07:58:36.295Z,6.50
2023-02-19T08:01:11.221Z,6.47
2023-02-19T08:03:39.307Z,6.42
2023-02-19T08:06:07.964Z,6.40
2023-02-19T08:08:35.754Z,6.38
2023-02-19T08:11:05.072Z,6.36
2023-02-19T08:13:32.834Z,6.34
2023-02-19T08:16:18.233Z,6.34
2023-02-19T08:18:48.263Z,6.34
2023-02-19T08:21:16.281Z,6.34
2023-02-19T08:23:44.158Z,6.35
2023-02-19T08:26:12.019Z,6.37
2023-02-19T08:28:39.867Z,6.38
2023-02-19T08:31:09.178Z,6.39
2023-02-19T08:33:37.925Z,6.40
2023-02-19T08:36:08.466Z,6.42
2023-02-19T08:38:37.998Z,6.43
2023-02-19T08:41:10.958Z,6.43
2023-02-19T08:43:39.199Z,6.41
2023-02-19T08:46:07.327Z,6.35
2023-02-19T08:48:35.408Z,6.35
2023-02-19T08:51:04.973Z,6.35
2023-02-19T08:53:32.831Z,6.36
2023-02-19T08:56:07.348Z,6.38
2023-02-19T08:58:35.370Z,6.41
2023-02-19T09:01:03.947Z,6.43
2023-02-19T09:03:31.862Z,6.46
2023-02-19T09:05:59.724Z,6.45
2023-02-19T09:08:28.109Z,6.45
2023-02-19T09:11:02.980Z,6.45
2023-02-19T09:13:31.263Z,6.41
2023-02-19T09:15:59.230Z,6.37
2023-02-19T09:18:27.246Z,6.34
2023-02-19T09:20:54.974Z,6.32
2023-02-19T09:23:22.774Z,6.28
2023-02-19T09:25:56.781Z,6.26
2023-02-19T09:28:24.642Z,6.21
2023-02-19T09:30:52.437Z,6.16
2023-02-19T09:33:20.476Z,6.11
2023-02-19T09:35:48.379Z,6.05
2023-02-19T09:38:16.413Z,6.00
2023-02-19T09:40:44.775Z,5.96
2023-02-19T09:43:16.915Z,5.97
2023-02-19T09:45:44.792Z,6.00
2023-02-19T09:48:13.038Z,6.01
2023-02-19T09:50:45.763Z,6.02
2023-02-19T09:53:23.635Z,6.02
2023-02-19T09:55:53.421Z,5.98
2023-02-19T09:58:30.904Z,5.78
2023-02-19T10:01:00.372Z,5.61
2023-02-19T10:03:33.274Z,5.49
2023-02-19T10:06:05.214Z,5.39
2023-02-19T10:08:34.368Z,5.26
2023-02-19T10:11:03.549Z,5.15
2023-02-19T10:13:39.873Z,5.06
2023-02-19T10:16:11.721Z,5.00
2023-02-19T10:18:41.611Z,4.96
2023-02-19T10:21:12.496Z,4.94
2023-02-19T10:23:41.538Z,4.86
2023-02-19T10:26:09.713Z,4.83
2023-02-19T10:28:37.821Z,4.80
2023-02-19T10:31:12.291Z,4.70
2023-02-19T10:33:50.800Z,4.65
2023-02-19T10:36:21.521Z,4.63
2023-02-19T10:38:49.536Z,4.64
2023-02-19T10:41:18.928Z,4.69
2023-02-19T10:43:55.883Z,4.72
2023-02-19T10:46:32.808Z,4.85
2023-02-19T10:49:18.103Z,4.87
2023-02-19T10:51:46.407Z,4.79
2023-02-19T10:54:25.393Z,4.71
2023-02-19T10:56:53.606Z,4.78
2023-02-19T10:59:24.744Z,4.88
2023-02-19T11:01:59.039Z,5.02
2023-02-19T11:04:28.511Z,5.00
2023-02-19T11:06:56.378Z,5.04
2023-02-19T11:09:28.955Z,5.11
2023-02-19T11:11:57.523Z,5.08
2023-02-19T11:14:26.420Z,4.97
2023-02-19T11:16:58.256Z,4.93
2023-02-19T11:19:26.004Z,4.89
2023-02-19T11:21:54.723Z,4.82
2023-02-19T11:24:27.136Z,4.71
2023-02-19T11:26:55.655Z,4.64
2023-02-19T11:29:24.382Z,4.56
2023-02-19T11:31:52.293Z,4.47
2023-02-19T11:34:20.258Z,4.45
2023-02-19T11:36:54.129Z,4.51
2023-02-19T11:39:27.824Z,4.65
2023-02-19T11:41:55.805Z,4.86
2023-02-19T11:44:42.582Z,4.91
2023-02-19T11:47:13.109Z,4.82
2023-02-19T11:49:46.237Z,4.81
2023-02-19T11:52:29.576Z,4.72
2023-02-19T11:55:13.937Z,4.64
2023-02-19T11:57:44.103Z,4.57
2023-02-19T12:00:23.513Z,4.54
2023-02-19T12:03:01.362Z,4.48
2023-02-19T12:05:48.013Z,4.43
2023-02-19T12:08:35.709Z,4.43
2023-02-19T12:11:03.594Z,4.44
2023-02-19T12:13:50.349Z,4.35
2023-02-19T12:16:21.369Z,4.36
2023-02-19T12:19:03.937Z,4.45
2023-02-19T12:21:38.594Z,4.40
2023-02-19T12:24:13.048Z,4.37
2023-02-19T12:26:47.614Z,4.34
2023-02-19T12:29:17.423Z,4.28
2023-02-19T12:31:59.307Z,4.32
2023-02-19T12:34:45.848Z,4.38
2023-02-19T12:37:25.864Z,4.43
2023-02-19T12:40:01.793Z,4.55
2023-02-19T12:42:38.945Z,4.82
2023-02-19T12:45:11.526Z,5.26
2023-02-19T12:47:40.916Z,5.59
2023-02-19T12:50:19.586Z,5.91
2023-02-19T12:52:50.267Z,6.04
2023-02-19T12:55:29.793Z,6.11
2023-02-19T12:57:59.282Z,6.03
2023-02-19T13:00:29.760Z,5.86
2023-02-19T13:03:14.940Z,5.64
2023-02-19T13:06:01.553Z,5.52
2023-02-19T13:08:42.063Z,5.33
2023-02-19T13:11:19.587Z,5.15
2023-02-19T13:13:47.758Z,4.96
2023-02-19T13:16:18.746Z,4.78
2023-02-19T13:18:52.067Z,4.75
2023-02-19T13:21:21.488Z,4.72
2023-02-19T13:23:49.440Z,4.68
2023-02-19T13:26:36.016Z,4.67
2023-02-19T13:29:10.211Z,4.62
2023-02-19T13:32:07.660Z,4.45
2023-02-19T13:34:41.564Z,4.35
2023-02-19T13:37:10.669Z,4.25
2023-02-19T13:39:45.752Z,4.21
2023-02-19T13:42:23.682Z,4.30
2023-02-19T13:44:56.417Z,4.54
2023-02-19T13:47:43.474Z,4.71
2023-02-19T13:50:17.588Z,4.66
2023-02-19T13:52:45.448Z,4.53
2023-02-19T13:55:32.205Z,4.49
2023-02-19T13:58:19.273Z,4.51
2023-02-19T14:00:51.251Z,4.39
2023-02-19T14:03:37.430Z,4.21
2023-02-19T14:06:06.503Z,4.03
2023-02-19T14:08:47.719Z,3.83
2023-02-19T14:11:16.436Z,3.65
2023-02-19T14:13:50.064Z,3.56
2023-02-19T14:16:30.708Z,3.53
2023-02-19T14:18:59.013Z,3.55
2023-02-19T14:21:37.287Z,3.61
2023-02-19T14:24:05.989Z,3.66
2023-02-19T14:26:34.664Z,3.65
2023-02-19T14:29:02.810Z,3.64
2023-02-19T14:31:32.416Z,3.59
2023-02-19T14:34:00.519Z,3.55
2023-02-19T14:36:48.127Z,3.48
2023-02-19T14:39:27.978Z,3.43
2023-02-19T14:42:00.224Z,3.38
2023-02-19T14:44:34.623Z,3.35
2023-02-19T14:47:02.458Z,3.31
2023-02-19T14:49:40.746Z,3.25
2023-02-19T14:52:15.210Z,3.19
2023-02-19T14:54:46.185Z,3.15
2023-02-19T14:57:26.082Z,3.13
2023-02-19T14:59:55.951Z,3.11
2023-02-19T15:02:24.041Z,3.08
2023-02-19T15:04:52.958Z,3.05
2023-02-19T15:07:24.422Z,3.05
2023-02-19T15:09:54.366Z,3.06
2023-02-19T15:12:24.213Z,3.03
2023-02-19T15:14:54.395Z,3.00
2023-02-19T15:17:30.771Z,2.99
2023-02-19T15:20:00.694Z,3.00
2023-02-19T15:22:29.937Z,3.00
2023-02-19T15:25:02.265Z,3.01
2023-02-19T15:27:31.286Z,3.00
2023-02-19T15:30:01.643Z,2.98
2023-02-19T15:32:29.731Z,2.98
2023-02-19T15:34:59.127Z,2.95
2023-02-19T15:37:28.799Z,2.91
2023-02-19T15:39:58.061Z,2.86
2023-02-19T15:42:30.557Z,2.85
2023-02-19T15:45:04.119Z,2.81
2023-02-19T15:47:36.710Z,2.75
2023-02-19T15:50:17.036Z,2.67
2023-02-19T15:53:07.311Z,2.58
2023-02-19T15:55:44.419Z,2.54
2023-02-19T15:58:12.338Z,2.48
2023-02-19T16:00:46.401Z,2.42
2023-02-19T16:03:24.734Z,2.37
2023-02-19T16:06:01.850Z,2.30
2023-02-19T16:08:32.624Z,2.27
2023-02-19T16:11:01.704Z,2.22
2023-02-19T16:13:33.628Z,2.18
2023-02-19T16:16:20.172Z,2.17
2023-02-19T16:18:49.735Z,2.13
2023-02-19T16:21:20.282Z,2.13
2023-02-19T16:23:49.595Z,2.12
2023-02-19T16:26:17.956Z,2.13
2023-02-19T16:28:50.280Z,2.12
2023-02-19T16:31:20.440Z,2.12
2023-02-19T16:33:48.919Z,2.11
2023-02-19T16:36:39.191Z,2.09
2023-02-19T16:39:07.088Z,2.09
2023-02-19T16:41:34.903Z,2.09
2023-02-19T16:44:22.882Z,2.09
2023-02-19T16:47:05.217Z,2.09
2023-02-19T16:49:33.849Z,2.10
2023-02-19T16:52:04.396Z,2.09
2023-02-19T16:54:32.702Z,2.08
2023-02-19T16:57:00.779Z,2.09
2023-02-19T16:59:28.916Z,2.08
2023-02-19T17:01:56.960Z,2.06
2023-02-19T17:04:25.097Z,2.05
2023-02-19T17:06:53.306Z,2.03
2023-02-19T17:09:21.129Z,2.01
2023-02-19T17:11:48.974Z,2.00
2023-02-19T17:14:17.000Z,2.00
2023-02-19T17:16:45.001Z,1.98
2023-02-19T17:19:14.235Z,1.95
2023-02-19T17:21:42.300Z,1.92
2023-02-19T17:24:10.327Z,1.90
2023-02-19T17:26:38.380Z,1.86
2023-02-19T17:29:11.633Z,1.83
2023-02-19T17:31:39.702Z,1.81
2023-02-19T17:34:07.678Z,1.76
2023-02-19T17:36:35.606Z,1.70
2023-02-19T17:39:04.449Z,1.62
2023-02-19T17:41:33.313Z,1.56
2023-02-19T17:44:01.188Z,1.48
2023-02-19T17:46:29.055Z,1.42
2023-02-19T17:48:57.145Z,1.36
2023-02-19T17:51:25.106Z,1.31
2023-02-19T17:53:52.992Z,1.26
2023-02-19T17:56:22.500Z,1.22
2023-02-19T17:58:50.539Z,1.19
2023-02-19T18:01:18.500Z,1.15
2023-02-19T18:03:46.466Z,1.12
2023-02-19T18:06:14.314Z,1.08
2023-02-19T18:08:52.255Z,1.04
2023-02-19T18:11:21.036Z,1.01
2023-02-19T18:13:49.994Z,0.98
2023-02-19T18:16:18.894Z,0.94
2023-02-19T18:22:01.992Z,0.86
2023-02-19T18:24:31.065Z,0.83
2023-02-19T18:26:59.389Z,0.81
2023-02-19T18:29:28.583Z,0.79
2023-02-19T18:31:56.593Z,0.77
2023-02-19T18:34:24.553Z,0.77
2023-02-19T18:36:52.840Z,0.77
2023-02-19T18:39:20.970Z,0.75
2023-02-19T18:41:49.401Z,0.74
2023-02-19T18:44:18.464Z,0.73
2023-02-19T18:46:46.596Z,0.72
2023-02-19T18:49:14.707Z,0.70
2023-02-19T18:51:43.312Z,0.68
2023-02-19T18:54:11.340Z,0.66
2023-02-19T18:56:45.614Z,0.64
2023-02-19T18:59:13.771Z,0.63
2023-02-19T19:01:42.269Z,0.62
2023-02-19T19:04:10.356Z,0.62
2023-02-19T19:06:38.228Z,0.61
2023-02-19T19:09:06.330Z,0.60
2023-02-19T19:11:35.592Z,0.59
2023-02-19T19:14:03.653Z,0.57
2023-02-19T19:16:31.550Z,0.55
2023-02-19T19:19:00.339Z,0.53
2023-02-19T19:21:28.376Z,0.51
2023-02-19T19:23:56.165Z,0.48
2023-02-19T19:26:23.953Z,0.46
2023-02-19T19:28:51.888Z,0.46
2023-02-19T19:31:20.615Z,0.45
2023-02-19T19:33:49.207Z,0.43
2023-02-19T19:36:21.694Z,0.41
2023-02-19T19:38:50.429Z,0.40
2023-02-19T19:41:19.270Z,0.38
2023-02-19T19:43:47.288Z,0.37
2023-02-19T19:46:15.301Z,0.38
2023-02-19T19:48:43.474Z,0.36
2023-02-19T19:51:11.716Z,0.35
2023-02-19T19:53:39.734Z,0.34
2023-02-19T19:56:08.517Z,0.32
2023-02-19T19:58:37.663Z,0.30
2023-02-19T20:01:06.673Z,0.28
2023-02-19T20:03:35.158Z,0.27
2023-02-19T20:06:03.755Z,0.25
2023-02-19T20:08:50.712Z,0.23
2023-02-19T20:11:19.081Z,0.21
2023-02-19T20:13:47.252Z,0.20
2023-02-19T20:16:15.872Z,0.19
2023-02-19T20:18:44.262Z,0.17
2023-02-19T20:21:15.190Z,0.15
2023-02-19T20:23:43.254Z,0.14
2023-02-19T20:26:11.368Z,0.13
2023-02-19T20:28:39.549Z,0.10
2023-02-19T20:31:09.000Z,0.06
2023-02-19T20:33:36.933Z,0.04
2023-02-19T20:36:04.880Z,0.02
2023-02-19T20:38:32.997Z,0.00
2023-02-19T20:41:12.190Z,-0.02
2023-02-19T20:43:40.167Z,-0.05
2023-02-19T20:46:09.596Z,-0.08
2023-02-19T20:48:38.376Z,-0.12
2023-02-19T20:51:06.412Z,-0.14
2023-02-19T20:53:34.551Z,-0.17
2023-02-19T20:59:03.802Z,-0.20
2023-02-19T21:01:32.076Z,-0.23
2023-02-19T21:04:00.341Z,-0.25
2023-02-19T21:06:30.308Z,-0.27
2023-02-19T21:09:17.319Z,-0.28
2023-02-19T21:11:46.320Z,-0.28
2023-02-19T21:14:14.136Z,-0.28
2023-02-19T21:16:42.257Z,-0.30
2023-02-19T21:19:10.535Z,-0.30
2023-02-19T21:21:54.384Z,-0.31
2023-02-19T21:24:22.751Z,-0.33
2023-02-19T21:29:52.205Z,-0.33
2023-02-19T21:32:19.435Z,-0.35
2023-02-19T21:34:45.958Z,-0.36
2023-02-19T21:37:12.741Z,-0.39
2023-02-19T21:39:39.284Z,-0.40
2023-02-19T21:42:05.753Z,-0.43
2023-02-19T21:44:32.305Z,-0.45
2023-02-19T21:49:44.806Z,-0.48
2023-02-19T21:52:11.248Z,-0.50
2023-02-19T21:54:37.749Z,-0.50
2023-02-19T21:57:04.214Z,-0.52
2023-02-19T21:59:30.825Z,-0.53
2023-02-19T22:01:57.194Z,-0.53
2023-02-19T22:04:23.647Z,-0.53
2023-02-19T22:06:53.409Z,-0.54
2023-02-19T22:09:19.757Z,-0.55
2023-02-19T22:11:46.148Z,-0.57
2023-02-19T22:14:12.662Z,-0.58
2023-02-19T22:16:39.152Z,-0.57
2023-02-19T22:19:05.697Z,-0.55
2023-02-19T22:21:32.647Z,-0.54
2023-02-19T22:24:00.219Z,-0.54
2023-02-19T22:26:28.281Z,-0.54
2023-02-19T22:28:55.276Z,-0.53
2023-02-19T22:31:22.619Z,-0.54
2023-02-19T22:33:50.106Z,-0.53
2023-02-19T22:36:22.872Z,-0.52
2023-02-19T22:38:49.419Z,-0.51
2023-02-19T22:44:01.669Z,-0.48
2023-02-19T22:46:29.216Z,-0.46
2023-02-19T22:48:56.225Z,-0.45
2023-02-19T22:51:23.527Z,-0.44
2023-02-19T22:53:51.829Z,-0.42
2023-02-19T22:56:19.110Z,-0.40
2023-02-19T22:59:08.289Z,-0.39
2023-02-19T23:01:35.062Z,-0.39
2023-02-19T23:04:01.479Z,-0.39
2023-02-19T23:06:32.125Z,-0.40
2023-02-19T23:09:01.158Z,-0.40
2023-02-19T23:11:28.852Z,-0.39
2023-02-19T23:13:55.372Z,-0.39
2023-02-19T23:16:21.981Z,-0.39
2023-02-19T23:18:48.407Z,-0.38
2023-02-19T23:21:15.386Z,-0.38
2023-02-19T23:23:42.338Z,-0.38
2023-02-19T23:26:09.327Z,-0.36
2023-02-19T23:28:35.732Z,-0.35
2023-02-19T23:31:02.081Z,-0.34
2023-02-19T23:33:29.064Z,-0.33
2023-02-19T23:35:55.564Z,-0.32
2023-02-19T23:38:21.912Z,-0.32
2023-02-19T23:40:48.335Z,-0.31
2023-02-19T23:43:14.643Z,-0.30
2023-02-19T23:45:40.986Z,-0.29
2023-02-19T23:48:07.746Z,-0.28
2023-02-19T23:50:34.166Z,-0.25
2023-02-19T23:53:00.689Z,-0.23
2023-02-19T23:55:27.170Z,-0.22
2023-02-19T23:57:53.611Z,-0.20
